Time;durP1;ratioP1;P1;durP2;ratioP2;P2;SDS_P1;SDS_P2;PMS_P1;PMS_P2;Temp;Humidity;BMP_temperature;BMP_pressure;BME280_temperature;BME280_humidity;BME280_pressure;Samples;Min_cycle;Max_cycle;Signal;HPM_P1;HPM_P2
2022/06/28 00:01:50;;;;;;;;;;;15.00;99.90;;;;;;8365682;28;19921;-72
2022/06/28 00:05:52;;;;;;;;;;;15.00;99.90;;;;;;8335802;28;19929;-72
2022/06/28 00:09:54;;;;;;;;;;;14.90;99.90;;;;;;8353184;28;19925;-72
2022/06/28 00:13:56;;;;;;;;;;;15.00;99.90;;;;;;8349814;28;19931;-72
2022/06/28 00:17:57;;;;;;;;;;;14.90;99.90;;;;;;8338931;28;19929;-72
2022/06/28 00:21:59;;;;;;;;;;;14.90;99.90;;;;;;8358982;28;19920;-72
2022/06/28 00:26:01;;;;;;;;;;;14.90;99.90;;;;;;8350757;28;19924;-73
2022/06/28 00:30:03;;;;;;;;;;;14.90;99.90;;;;;;8347658;28;19928;-72
2022/06/28 00:34:05;;;;;;;;;;;14.90;99.90;;;;;;8352874;28;19921;-72
2022/06/28 00:38:07;;;;;;;;;;;14.90;99.90;;;;;;8352467;28;19929;-72
2022/06/28 00:42:09;;;;;;;;;;;14.90;99.90;;;;;;8352022;28;20334;-72
2022/06/28 00:46:11;;;;;;;;;;;14.90;99.90;;;;;;8309154;28;19921;-72
2022/06/28 00:50:12;;;;;;;;;;;14.90;99.90;;;;;;8322780;28;20331;-72
2022/06/28 00:54:14;;;;;;;;;;;14.80;99.90;;;;;;8326217;28;19921;-72
2022/06/28 00:58:16;;;;;;;;;;;14.80;99.90;;;;;;8319425;28;19921;-72
2022/06/28 01:02:18;;;;;;;;;;;14.80;99.90;;;;;;8329165;28;20287;-72
2022/06/28 01:06:20;;;;;;;;;;;14.70;99.90;;;;;;8307020;28;19968;-72
2022/06/28 01:10:23;;;;;;;;;;;14.70;99.90;;;;;;8308073;28;19933;-72
2022/06/28 01:14:25;;;;;;;;;;;14.70;99.90;;;;;;8320350;28;19929;-72
2022/06/28 01:18:27;;;;;;;;;;;14.60;99.90;;;;;;8317477;28;19936;-72
2022/06/28 01:22:29;;;;;;;;;;;14.60;99.90;;;;;;8322188;28;19931;-72
2022/06/28 01:26:31;;;;;;;;;;;14.60;99.90;;;;;;8318743;28;19932;-72
2022/06/28 01:30:33;;;;;;;;;;;14.50;99.90;;;;;;8315524;28;20388;-72
2022/06/28 01:34:35;;;;;;;;;;;14.50;99.90;;;;;;8326706;28;19940;-72
2022/06/28 01:38:38;;;;;;;;;;;14.40;99.90;;;;;;8317237;28;19925;-72
2022/06/28 01:42:39;;;;;;;;;;;14.40;99.90;;;;;;8321292;28;19928;-72
2022/06/28 01:46:41;;;;;;;;;;;14.40;99.90;;;;;;8329867;28;19924;-72
2022/06/28 01:50:44;;;;;;;;;;;14.30;99.90;;;;;;8357457;28;19941;-72
2022/06/28 01:54:46;;;;;;;;;;;14.30;99.90;;;;;;8334864;28;19929;-72
2022/06/28 01:58:48;;;;;;;;;;;14.30;99.90;;;;;;8328915;28;19924;-73
2022/06/28 02:02:49;;;;;;;;;;;14.30;99.90;;;;;;8367950;28;19931;-72
2022/06/28 02:06:51;;;;;;;;;;;14.20;99.90;;;;;;8349387;28;20330;-72
2022/06/28 02:10:56;;;;;;;;;;;14.20;99.90;;;;;;8355585;28;20311;-72
2022/06/28 02:14:58;;;;;;;;;;;14.10;99.90;;;;;;8341078;28;19925;-72
2022/06/28 02:19:01;;;;;;;;;;;14.10;99.90;;;;;;8361866;28;19925;-72
2022/06/28 02:23:02;;;;;;;;;;;14.10;99.90;;;;;;8346954;28;19928;-72
2022/06/28 02:27:04;;;;;;;;;;;14.10;99.90;;;;;;8353260;28;19927;-72
2022/06/28 02:31:09;;;;;;;;;;;14.00;99.90;;;;;;8356408;28;19960;-72
2022/06/28 02:43:52;;;;;;;;;;;13.90;99.90;;;;;;8330286;28;19928;-72
2022/06/28 02:47:53;;;;;;;;;;;13.80;99.90;;;;;;8366417;28;19972;-72
2022/06/28 02:51:55;;;;;;;;;;;13.80;99.90;;;;;;8351202;28;19928;-72
2022/06/28 02:55:57;;;;;;;;;;;13.80;99.90;;;;;;8344900;28;19920;-72
2022/06/28 02:59:59;;;;;;;;;;;13.70;99.90;;;;;;8360493;28;19986;-72
2022/06/28 03:04:00;;;;;;;;;;;13.70;99.90;;;;;;8336548;28;19931;-72
2022/06/28 03:08:02;;;;;;;;;;;13.60;99.90;;;;;;8333683;28;20051;-72
2022/06/28 03:12:06;;;;;;;;;;;13.60;99.90;;;;;;8360818;28;19925;-72
2022/06/28 03:16:07;;;;;;;;;;;13.60;99.90;;;;;;8346506;28;19921;-73
2022/06/28 03:20:09;;;;;;;;;;;13.60;99.90;;;;;;8351256;28;20363;-73
2022/06/28 03:24:11;;;;;;;;;;;13.50;99.90;;;;;;8352268;28;19951;-72
2022/06/28 03:28:12;;;;;;;;;;;13.50;99.90;;;;;;8351092;28;19932;-72
2022/06/28 03:32:14;;;;;;;;;;;13.40;99.90;;;;;;8369371;28;20043;-72
2022/06/28 03:36:16;;;;;;;;;;;13.40;99.90;;;;;;8352158;28;20326;-72
2022/06/28 03:40:17;;;;;;;;;;;13.40;99.90;;;;;;8358412;28;20368;-72
2022/06/28 03:44:19;;;;;;;;;;;13.30;99.90;;;;;;8358793;28;20261;-72
2022/06/28 03:48:21;;;;;;;;;;;13.30;99.90;;;;;;8358214;28;20302;-72
2022/06/28 03:52:28;;;;;;;;;;;13.30;99.90;;;;;;8347197;28;19928;-72
2022/06/28 03:56:30;;;;;;;;;;;13.30;99.90;;;;;;8331570;28;20431;-72
2022/06/28 04:00:32;;;;;;;;;;;13.30;99.90;;;;;;8355747;28;20489;-72
2022/06/28 04:04:33;;;;;;;;;;;13.30;99.90;;;;;;8366107;28;20336;-72
2022/06/28 04:08:35;;;;;;;;;;;13.40;99.90;;;;;;8368367;28;19921;-72
2022/06/28 04:12:37;;;;;;;;;;;13.40;99.90;;;;;;8374287;28;19931;-73
2022/06/28 04:16:40;;;;;;;;;;;13.40;99.90;;;;;;8348510;28;20359;-72
2022/06/28 04:20:44;;;;;;;;;;;13.50;99.90;;;;;;8349452;28;19921;-72
2022/06/28 04:24:46;;;;;;;;;;;13.50;99.90;;;;;;8368669;28;19931;-71
2022/06/28 04:28:47;;;;;;;;;;;13.60;99.90;;;;;;8353687;28;19920;-72
2022/06/28 04:32:49;;;;;;;;;;;13.70;99.90;;;;;;8343713;28;19924;-72
2022/06/28 04:36:50;;;;;;;;;;;13.80;99.90;;;;;;8364693;28;19927;-72
2022/06/28 04:40:52;;;;;;;;;;;13.80;99.90;;;;;;8365772;28;19921;-72
2022/06/28 04:44:54;;;;;;;;;;;13.90;99.90;;;;;;8347486;28;19935;-72
2022/06/28 04:48:55;;;;;;;;;;;13.90;99.90;;;;;;8325808;28;20366;-72
2022/06/28 04:52:57;;;;;;;;;;;14.00;99.90;;;;;;8330961;28;19920;-72
2022/06/28 04:56:59;;;;;;;;;;;14.10;99.90;;;;;;8356954;28;19952;-72
2022/06/28 05:01:01;;;;;;;;;;;14.20;99.90;;;;;;8359145;28;19924;-72
2022/06/28 05:05:19;;;;;;;;;;;14.30;99.90;;;;;;8367978;28;20385;-72
2022/06/28 05:09:38;;;;;;;;;;;14.40;99.90;;;;;;8372263;28;19974;-72
2022/06/28 05:13:39;;;;;;;;;;;14.50;99.90;;;;;;8353412;28;19925;-72
2022/06/28 05:17:41;;;;;;;;;;;14.60;99.90;;;;;;8357320;28;19920;-72
2022/06/28 05:21:43;;;;;;;;;;;14.70;99.90;;;;;;8364265;28;19929;-72
2022/06/28 05:25:44;;;;;;;;;;;14.90;99.90;;;;;;8362757;28;19920;-72
2022/06/28 05:29:46;;;;;;;;;;;14.90;99.90;;;;;;8342229;28;19924;-71
2022/06/28 05:33:48;;;;;;;;;;;15.00;99.90;;;;;;8356172;28;20406;-72
2022/06/28 05:37:50;;;;;;;;;;;15.10;99.90;;;;;;8353439;28;20311;-72
2022/06/28 05:41:51;;;;;;;;;;;15.20;99.90;;;;;;8358885;28;19928;-72
2022/06/28 05:45:53;;;;;;;;;;;15.30;99.90;;;;;;8354868;28;19920;-72
2022/06/28 05:49:55;;;;;;;;;;;15.40;99.90;;;;;;8365839;28;19921;-72
2022/06/28 05:53:57;;;;;;;;;;;15.50;99.90;;;;;;8343228;28;19921;-72
2022/06/28 05:57:58;;;;;;;;;;;15.60;99.90;;;;;;8323781;28;19920;-72
2022/06/28 06:02:00;;;;;;;;;;;15.60;99.90;;;;;;8344430;28;19928;-72
2022/06/28 06:06:02;;;;;;;;;;;15.70;99.90;;;;;;8357019;28;19930;-72
2022/06/28 06:10:04;;;;;;;;;;;15.70;99.90;;;;;;8358188;28;19924;-72
2022/06/28 06:14:06;;;;;;;;;;;15.80;99.90;;;;;;8347305;28;19935;-72
2022/06/28 06:18:07;;;;;;;;;;;15.70;99.90;;;;;;8358378;28;19920;-72
2022/06/28 06:22:09;;;;;;;;;;;15.80;99.90;;;;;;8380810;28;20558;-72
2022/06/28 06:26:10;;;;;;;;;;;15.80;99.90;;;;;;8365579;28;20380;-72
2022/06/28 06:30:13;;;;;;;;;;;15.90;99.90;;;;;;8375538;28;19921;-72
2022/06/28 06:34:14;;;;;;;;;;;16.00;99.90;;;;;;8352700;28;19925;-72
2022/06/28 06:38:17;;;;;;;;;;;16.00;99.90;;;;;;8371093;28;19975;-72
2022/06/28 06:42:19;;;;;;;;;;;16.10;99.90;;;;;;8380009;28;19974;-72
2022/06/28 06:46:20;;;;;;;;;;;16.20;99.90;;;;;;8321609;28;19952;-72
2022/06/28 06:50:24;;;;;;;;;;;16.30;99.90;;;;;;8331089;28;20276;-72
2022/06/28 06:54:26;;;;;;;;;;;16.40;99.90;;;;;;8333952;28;19924;-72
2022/06/28 06:58:27;;;;;;;;;;;16.40;99.90;;;;;;8328201;28;19925;-72
2022/06/28 07:02:29;;;;;;;;;;;16.50;99.90;;;;;;8313881;28;19924;-72
2022/06/28 07:06:31;;;;;;;;;;;16.60;99.90;;;;;;8335553;28;20397;-72
2022/06/28 07:10:33;;;;;;;;;;;16.60;99.90;;;;;;8332051;28;19931;-72
2022/06/28 07:14:35;;;;;;;;;;;16.80;99.90;;;;;;8338548;28;20293;-72
2022/06/28 07:18:36;;;;;;;;;;;16.80;99.90;;;;;;8339931;28;19940;-72
2022/06/28 07:22:38;;;;;;;;;;;16.90;99.90;;;;;;8329899;28;19928;-72
2022/06/28 07:26:40;;;;;;;;;;;16.90;99.90;;;;;;8315268;28;19931;-72
2022/06/28 07:30:42;;;;;;;;;;;16.90;99.90;;;;;;8340253;28;20275;-71
2022/06/28 07:34:44;;;;;;;;;;;17.00;99.90;;;;;;8340148;28;20261;-71
2022/06/28 07:38:46;;;;;;;;;;;17.00;99.90;;;;;;8330712;28;19921;-72
2022/06/28 07:42:48;;;;;;;;;;;17.10;99.90;;;;;;8340836;28;19931;-72
2022/06/28 07:46:49;;;;;;;;;;;17.10;99.90;;;;;;8337012;28;19928;-72
2022/06/28 07:55:12;;;;;;;;;;;17.20;99.90;;;;;;8342011;28;19929;-71
2022/06/28 07:59:13;;;;;;;;;;;17.30;99.90;;;;;;8334980;28;20372;-71
2022/06/28 08:03:15;;;;;;;;;;;17.40;99.90;;;;;;8324414;28;19921;-71
2022/06/28 08:07:17;;;;;;;;;;;17.50;99.90;;;;;;8327077;28;20300;-71
2022/06/28 08:11:19;;;;;;;;;;;17.50;99.90;;;;;;8321284;28;20229;-72
2022/06/28 08:15:21;;;;;;;;;;;17.60;99.90;;;;;;8339617;28;19921;-71
2022/06/28 08:19:23;;;;;;;;;;;17.60;99.90;;;;;;8336879;28;19921;-72
2022/06/28 08:23:24;;;;;;;;;;;17.70;99.90;;;;;;8337326;28;19925;-71
2022/06/28 08:27:26;;;;;;;;;;;17.70;99.90;;;;;;8321803;28;19921;-72
2022/06/28 08:31:27;;;;;;;;;;;17.70;99.90;;;;;;8325804;28;19932;-71
2022/06/28 08:35:29;;;;;;;;;;;17.80;99.90;;;;;;8328277;28;20291;-71
2022/06/28 08:39:31;;;;;;;;;;;17.80;99.90;;;;;;8325157;28;20056;-71
2022/06/28 08:43:33;;;;;;;;;;;17.90;99.90;;;;;;8325128;28;19925;-72
2022/06/28 08:47:37;;;;;;;;;;;17.90;99.90;;;;;;8329596;28;19921;-71
2022/06/28 08:51:39;;;;;;;;;;;18.00;99.90;;;;;;8341859;28;19925;-71
2022/06/28 08:55:41;;;;;;;;;;;18.10;99.90;;;;;;8341090;28;20284;-72
2022/06/28 08:59:44;;;;;;;;;;;18.10;99.90;;;;;;8323465;28;19921;-72
2022/06/28 09:03:49;;;;;;;;;;;18.20;99.90;;;;;;8328342;28;20298;-71
2022/06/28 09:07:52;;;;;;;;;;;18.20;99.90;;;;;;8326138;28;19928;-72
2022/06/28 09:11:55;;;;;;;;;;;18.20;99.90;;;;;;8306402;28;19936;-71
2022/06/28 09:15:59;;;;;;;;;;;18.20;99.90;;;;;;8326915;28;19925;-71
2022/06/28 09:20:05;;;;;;;;;;;18.30;99.90;;;;;;8327500;28;19921;-71
2022/06/28 09:24:08;;;;;;;;;;;18.30;99.90;;;;;;8331393;28;19921;-71
2022/06/28 09:28:09;;;;;;;;;;;18.40;99.90;;;;;;8335641;28;19925;-71
2022/06/28 09:32:11;;;;;;;;;;;18.50;99.90;;;;;;8338696;28;19925;-71
2022/06/28 09:36:13;;;;;;;;;;;18.50;99.90;;;;;;8334857;28;19940;-71
2022/06/28 09:40:17;;;;;;;;;;;18.50;99.90;;;;;;8339307;28;19927;-71
2022/06/28 09:44:25;;;;;;;;;;;18.60;99.90;;;;;;8336560;28;19929;-71
2022/06/28 09:48:31;;;;;;;;;;;18.70;99.90;;;;;;8334391;28;19920;-72
2022/06/28 09:52:33;;;;;;;;;;;18.80;99.90;;;;;;8334502;28;19924;-72
2022/06/28 09:56:41;;;;;;;;;;;18.80;99.90;;;;;;8340953;28;19952;-73
2022/06/28 10:00:43;;;;;;;;;;;18.90;99.90;;;;;;8337283;28;19928;-71
2022/06/28 10:04:45;;;;;;;;;;;19.00;99.90;;;;;;8319059;28;20407;-71
2022/06/28 10:08:48;;;;;;;;;;;19.00;99.90;;;;;;8327989;28;19921;-71
2022/06/28 10:17:39;;;;;;;;;;;19.10;99.90;;;;;;8339950;28;20335;-71
2022/06/28 10:21:41;;;;;;;;;;;19.20;99.90;;;;;;8325500;28;20001;-71
2022/06/28 10:25:59;;;;;;;;;;;19.20;99.90;;;;;;8323420;28;19921;-71
2022/06/28 10:30:05;;;;;;;;;;;19.30;99.90;;;;;;8304040;28;19928;-71
2022/06/28 10:34:09;;;;;;;;;;;19.40;99.90;;;;;;8304345;28;19921;-71
2022/06/28 10:38:10;;;;;;;;;;;19.40;99.90;;;;;;8324045;28;19921;-71
2022/06/28 10:42:13;;;;;;;;;;;19.40;99.90;;;;;;8310750;28;19955;-71
2022/06/28 10:46:14;;;;;;;;;;;19.50;99.90;;;;;;8328094;28;20023;-71
2022/06/28 10:50:16;;;;;;;;;;;19.50;99.90;;;;;;8309422;28;19928;-71
2022/06/28 10:54:18;;;;;;;;;;;19.60;99.90;;;;;;8325477;28;19921;-71
2022/06/28 10:58:20;;;;;;;;;;;19.70;99.90;;;;;;8326995;28;19921;-71
2022/06/28 11:02:22;;;;;;;;;;;19.70;99.90;;;;;;8333399;28;19944;-71
2022/06/28 11:06:36;;;;;;;;;;;19.80;99.90;;;;;;8324788;28;19928;-71
2022/06/28 11:10:58;;;;;;;;;;;19.80;99.90;;;;;;8324488;28;19922;-71
2022/06/28 11:15:01;;;;;;;;;;;19.90;99.90;;;;;;8326175;28;20292;-72
2022/06/28 11:19:06;;;;;;;;;;;19.90;99.90;;;;;;8322647;28;19932;-71
2022/06/28 11:23:08;;;;;;;;;;;20.00;99.90;;;;;;8325528;28;20364;-71
2022/06/28 11:27:21;;;;;;;;;;;20.10;99.90;;;;;;8334323;28;19931;-71
2022/06/28 11:31:25;;;;;;;;;;;20.10;99.90;;;;;;8338028;28;19924;-71
2022/06/28 11:35:29;;;;;;;;;;;20.20;99.90;;;;;;8334266;28;20301;-71
2022/06/28 11:39:30;;;;;;;;;;;20.30;99.90;;;;;;8327650;28;19971;-71
2022/06/28 11:43:32;;;;;;;;;;;20.30;99.90;;;;;;8308526;28;19932;-71
2022/06/28 11:47:34;;;;;;;;;;;20.40;99.90;;;;;;8336427;28;19925;-71
2022/06/28 11:51:35;;;;;;;;;;;20.50;99.90;;;;;;8334327;28;19921;-71
2022/06/28 11:55:42;;;;;;;;;;;20.50;99.90;;;;;;8311037;28;19960;-71
2022/06/28 11:59:54;;;;;;;;;;;20.50;99.90;;;;;;8327418;28;19932;-71
2022/06/28 12:03:57;;;;;;;;;;;20.60;99.90;;;;;;8327645;28;19937;-71
2022/06/28 12:08:00;;;;;;;;;;;20.60;99.90;;;;;;8327606;28;19921;-71
2022/06/28 12:12:03;;;;;;;;;;;20.70;99.90;;;;;;8325967;28;21126;-71
2022/06/28 12:16:11;;;;;;;;;;;20.70;99.90;;;;;;8325990;28;19924;-71
2022/06/28 12:20:14;;;;;;;;;;;20.80;99.90;;;;;;8329632;28;19925;-71
2022/06/28 12:24:16;;;;;;;;;;;20.90;99.90;;;;;;8310964;28;19973;-71
2022/06/28 12:43:21;;;;;;;;;;;21.10;99.90;;;;;;8323708;28;19932;-71
2022/06/28 12:47:23;;;;;;;;;;;21.10;99.90;;;;;;8335008;28;20485;-71
2022/06/28 12:51:24;;;;;;;;;;;21.10;99.90;;;;;;8343239;28;19931;-71
2022/06/28 12:55:26;;;;;;;;;;;21.20;99.90;;;;;;8339625;28;19921;-71
2022/06/28 12:59:28;;;;;;;;;;;21.30;99.90;;;;;;8334026;28;19921;-71
2022/06/28 13:03:29;;;;;;;;;;;21.30;99.90;;;;;;8341021;28;19925;-71
2022/06/28 13:07:31;;;;;;;;;;;21.30;99.90;;;;;;8322154;28;19962;-71
2022/06/28 13:11:33;;;;;;;;;;;21.40;99.90;;;;;;8343962;28;19924;-72
2022/06/28 13:15:34;;;;;;;;;;;21.50;99.90;;;;;;8334592;28;19921;-71
2022/06/28 13:19:36;;;;;;;;;;;21.60;99.90;;;;;;8334619;28;19927;-71
2022/06/28 13:23:38;;;;;;;;;;;21.50;99.90;;;;;;8341672;28;19939;-72
2022/06/28 13:27:39;;;;;;;;;;;21.50;99.90;;;;;;8335243;28;20360;-71
2022/06/28 13:31:41;;;;;;;;;;;21.50;99.90;;;;;;8319494;28;19931;-72
2022/06/28 13:35:43;;;;;;;;;;;21.70;99.90;;;;;;8330920;28;20579;-72
2022/06/28 13:39:45;;;;;;;;;;;21.70;99.90;;;;;;8322625;28;19921;-71
2022/06/28 13:43:46;;;;;;;;;;;21.80;99.90;;;;;;8333296;28;20275;-71
2022/06/28 13:47:48;;;;;;;;;;;21.90;99.90;;;;;;8305584;28;19928;-71
2022/06/28 13:51:50;;;;;;;;;;;21.90;99.90;;;;;;8334232;28;19925;-72
2022/06/28 13:55:53;;;;;;;;;;;22.00;99.90;;;;;;8337136;28;19925;-71
2022/06/28 13:59:57;;;;;;;;;;;22.00;99.90;;;;;;8332522;28;19921;-71
2022/06/28 14:03:59;;;;;;;;;;;22.00;99.90;;;;;;8330852;28;19921;-71
2022/06/28 14:08:00;;;;;;;;;;;22.00;99.90;;;;;;8327791;28;19921;-72
2022/06/28 14:12:02;;;;;;;;;;;22.10;99.90;;;;;;8337445;28;19936;-72
2022/06/28 14:16:04;;;;;;;;;;;22.10;99.90;;;;;;8310721;28;19932;-71
2022/06/28 14:20:06;;;;;;;;;;;22.20;99.90;;;;;;8335597;28;20338;-71
2022/06/28 14:24:08;;;;;;;;;;;22.30;99.90;;;;;;8330014;28;19944;-71
2022/06/28 14:28:10;;;;;;;;;;;22.40;99.90;;;;;;8333483;28;19921;-71
2022/06/28 14:32:12;;;;;;;;;;;22.40;99.90;;;;;;8326469;28;19921;-71
2022/06/28 14:36:14;;;;;;;;;;;22.30;99.90;;;;;;8323992;28;20364;-72
2022/06/28 14:40:15;;;;;;;;;;;22.20;99.90;;;;;;8330603;28;19924;-72
2022/06/28 14:44:17;;;;;;;;;;;22.20;99.90;;;;;;8333012;28;19928;-71
2022/06/28 14:58:22;;;;;;;;;;;22.60;99.90;;;;;;8320182;28;19923;-71
2022/06/28 15:02:31;;;;;;;;;;;22.80;99.90;;;;;;8323103;28;19925;-72
2022/06/28 15:06:32;;;;;;;;;;;22.80;99.90;;;;;;8324500;28;19957;-72
2022/06/28 15:10:36;;;;;;;;;;;22.80;99.90;;;;;;8332234;28;19925;-72
2022/06/28 15:14:37;;;;;;;;;;;22.80;99.90;;;;;;8329907;28;19921;-72
2022/06/28 15:18:39;;;;;;;;;;;22.90;99.90;;;;;;8327514;28;19925;-72
2022/06/28 15:31:21;;;;;;;;;;;23.00;99.90;;;;;;8329080;28;19928;-71
2022/06/28 15:35:23;;;;;;;;;;;23.10;99.90;;;;;;8309944;28;20028;-71
2022/06/28 15:39:25;;;;;;;;;;;23.10;99.90;;;;;;8325195;28;19945;-71
2022/06/28 15:43:26;;;;;;;;;;;23.20;99.90;;;;;;8331959;28;19929;-72
2022/06/28 15:47:28;;;;;;;;;;;23.30;99.90;;;;;;8330216;28;19925;-72
2022/06/28 15:51:30;;;;;;;;;;;23.30;99.90;;;;;;8312774;28;19921;-71
2022/06/28 15:55:32;;;;;;;;;;;23.50;99.90;;;;;;8329954;28;20262;-72
2022/06/28 15:59:33;;;;;;;;;;;23.60;99.90;;;;;;8317004;28;20039;-72
2022/06/28 16:03:35;;;;;;;;;;;23.90;99.90;;;;;;8330061;28;19920;-71
2022/06/28 16:07:38;;;;;;;;;;;24.10;99.90;;;;;;8329357;28;19925;-71
2022/06/28 16:11:40;;;;;;;;;;;24.40;99.90;;;;;;8328660;28;19929;-71
2022/06/28 16:15:41;;;;;;;;;;;24.50;99.90;;;;;;8327706;28;19925;-72
2022/06/28 16:19:43;;;;;;;;;;;24.40;99.90;;;;;;8310641;28;19925;-71
2022/06/28 16:24:05;;;;;;;;;;;24.10;99.90;;;;;;8328184;28;20048;-72
2022/06/28 16:28:07;;;;;;;;;;;23.90;99.90;;;;;;8328938;28;19932;-72
2022/06/28 16:32:09;;;;;;;;;;;24.10;99.90;;;;;;8332185;28;19928;-72
2022/06/28 16:36:10;;;;;;;;;;;24.70;99.90;;;;;;8307422;28;19921;-72
2022/06/28 16:40:13;;;;;;;;;;;25.30;99.90;;;;;;8327927;28;19920;-71
2022/06/28 16:44:15;;;;;;;;;;;25.80;99.90;;;;;;8302588;28;19929;-72
2022/06/28 16:48:16;;;;;;;;;;;26.30;99.90;;;;;;8312256;28;19928;-72
2022/06/28 16:52:18;;;;;;;;;;;26.60;99.90;;;;;;8326599;28;19983;-72
2022/06/28 16:56:20;;;;;;;;;;;26.80;99.90;;;;;;8325331;28;19928;-71
2022/06/28 17:00:25;;;;;;;;;;;27.10;99.90;;;;;;8321512;28;19938;-72
2022/06/28 17:04:26;;;;;;;;;;;27.20;99.90;;;;;;8323300;28;19925;-71
2022/06/28 17:08:28;;;;;;;;;;;27.30;99.90;;;;;;8321924;28;19921;-71
2022/06/28 17:12:31;;;;;;;;;;;27.10;99.90;;;;;;8328346;28;19965;-72
2022/06/28 17:16:32;;;;;;;;;;;27.10;99.90;;;;;;8325249;28;19920;-71
2022/06/28 17:20:35;;;;;;;;;;;27.10;99.90;;;;;;8322929;28;19936;-72
2022/06/28 17:24:36;;;;;;;;;;;27.10;99.90;;;;;;8323636;28;19921;-71
2022/06/28 17:28:38;;;;;;;;;;;26.80;99.90;;;;;;8323319;28;19932;-71
2022/06/28 17:32:40;;;;;;;;;;;26.50;99.90;;;;;;8322496;28;19928;-71
2022/06/28 17:36:41;;;;;;;;;;;26.10;99.90;;;;;;8322901;28;19935;-71
2022/06/28 17:40:43;;;;;;;;;;;25.60;99.90;;;;;;8324374;28;19939;-71
2022/06/28 17:44:46;;;;;;;;;;;25.40;99.90;;;;;;8324360;28;19921;-71
2022/06/28 17:48:48;;;;;;;;;;;25.10;99.90;;;;;;8309144;28;19929;-72
2022/06/28 17:52:50;;;;;;;;;;;25.00;99.90;;;;;;8324718;28;19931;-71
2022/06/28 17:56:52;;;;;;;;;;;24.90;99.90;;;;;;8323499;28;19928;-71
2022/06/28 18:00:54;;;;;;;;;;;24.80;99.90;;;;;;8321892;28;19924;-71
2022/06/28 18:04:55;;;;;;;;;;;24.70;99.90;;;;;;8322674;28;19928;-72
2022/06/28 18:08:57;;;;;;;;;;;24.60;99.90;;;;;;8326178;28;19935;-71
2022/06/28 18:13:01;;;;;;;;;;;24.50;99.90;;;;;;8304084;28;19928;-71
2022/06/28 18:17:03;;;;;;;;;;;24.50;99.90;;;;;;8323594;28;19974;-72
2022/06/28 18:21:05;;;;;;;;;;;24.50;99.90;;;;;;8323330;28;19921;-71
2022/06/28 18:25:07;;;;;;;;;;;24.40;99.90;;;;;;8303936;28;24149;-71
2022/06/28 18:29:09;;;;;;;;;;;24.30;99.90;;;;;;8323700;28;19939;-72
2022/06/28 18:33:10;;;;;;;;;;;24.30;99.90;;;;;;8325699;28;19925;-72
2022/06/28 18:37:12;;;;;;;;;;;24.30;99.90;;;;;;8314253;28;19929;-71
2022/06/28 18:41:14;;;;;;;;;;;24.20;99.90;;;;;;8307707;28;19929;-71
2022/06/28 18:45:15;;;;;;;;;;;24.20;99.90;;;;;;8324278;28;20304;-72
2022/06/28 18:49:17;;;;;;;;;;;24.20;99.90;;;;;;8320840;28;20281;-72
2022/06/28 18:53:18;;;;;;;;;;;24.10;99.90;;;;;;8327426;28;20391;-72
2022/06/28 18:57:20;;;;;;;;;;;24.00;99.90;;;;;;8331848;28;20359;-71
2022/06/28 19:01:36;;;;;;;;;;;23.90;99.90;;;;;;8276167;28;19921;-71
2022/06/28 19:05:37;;;;;;;;;;;23.80;99.90;;;;;;8334337;28;20385;-72
2022/06/28 19:09:39;;;;;;;;;;;23.70;99.90;;;;;;8316982;28;19930;-72
2022/06/28 19:13:42;;;;;;;;;;;23.60;99.90;;;;;;8334860;28;19920;-72
2022/06/28 19:17:43;;;;;;;;;;;23.50;99.90;;;;;;8334823;28;19936;-72
2022/06/28 19:21:45;;;;;;;;;;;23.30;99.90;;;;;;8336553;28;19925;-72
2022/06/28 19:25:47;;;;;;;;;;;23.20;99.90;;;;;;8337554;28;19931;-71
2022/06/28 19:29:49;;;;;;;;;;;23.10;99.90;;;;;;8334587;28;19921;-71
2022/06/28 19:33:50;;;;;;;;;;;23.00;99.90;;;;;;8343315;28;20478;-72
2022/06/28 19:37:52;;;;;;;;;;;22.80;99.90;;;;;;8331473;28;19928;-73
2022/06/28 19:41:54;;;;;;;;;;;22.70;99.90;;;;;;8333514;28;20407;-71
2022/06/28 19:45:57;;;;;;;;;;;22.60;99.90;;;;;;8332003;28;19921;-72
2022/06/28 19:49:59;;;;;;;;;;;22.50;99.90;;;;;;8337152;28;19999;-72
2022/06/28 19:54:01;;;;;;;;;;;22.30;99.90;;;;;;8338915;28;20202;-71
2022/06/28 19:58:03;;;;;;;;;;;22.20;99.90;;;;;;8338030;28;22818;-72
2022/06/28 20:02:05;;;;;;;;;;;22.00;99.90;;;;;;8342340;28;20985;-72
2022/06/28 20:06:07;;;;;;;;;;;21.90;99.90;;;;;;8342502;28;19920;-72
2022/06/28 20:10:09;;;;;;;;;;;21.80;99.90;;;;;;8343535;28;19921;-72
2022/06/28 20:14:10;;;;;;;;;;;21.60;99.90;;;;;;8343346;28;19920;-72
2022/06/28 20:18:12;;;;;;;;;;;21.50;99.90;;;;;;8345437;28;19924;-72
2022/06/28 20:22:14;;;;;;;;;;;21.40;99.90;;;;;;8345974;28;20288;-73
2022/06/28 20:26:15;;;;;;;;;;;21.30;99.90;;;;;;8339734;28;19924;-72
2022/06/28 20:30:17;;;;;;;;;;;21.30;99.90;;;;;;8338784;28;19935;-72
2022/06/28 20:34:19;;;;;;;;;;;21.10;99.90;;;;;;8336917;28;19928;-71
2022/06/28 20:38:21;;;;;;;;;;;21.00;99.90;;;;;;8331598;28;19921;-71
2022/06/28 20:42:23;;;;;;;;;;;21.00;99.90;;;;;;8336828;28;19951;-71
2022/06/28 20:46:25;;;;;;;;;;;20.90;99.90;;;;;;8329878;28;20051;-72
2022/06/28 20:50:27;;;;;;;;;;;20.80;99.90;;;;;;8337198;28;19937;-72
2022/06/28 20:54:28;;;;;;;;;;;20.70;99.90;;;;;;8345332;28;19947;-72
2022/06/28 20:58:31;;;;;;;;;;;20.70;99.90;;;;;;8343654;28;19921;-72
2022/06/28 21:02:33;;;;;;;;;;;20.60;99.90;;;;;;8339304;28;20351;-72
2022/06/28 21:06:35;;;;;;;;;;;20.50;99.90;;;;;;8359429;28;20462;-71
2022/06/28 21:10:36;;;;;;;;;;;20.40;99.90;;;;;;8371299;28;19979;-72
2022/06/28 21:14:38;;;;;;;;;;;20.30;99.90;;;;;;8374875;28;19924;-72
2022/06/28 21:18:43;;;;;;;;;;;20.20;99.90;;;;;;8357511;28;19928;-71
2022/06/28 21:22:47;;;;;;;;;;;20.20;99.90;;;;;;8372084;28;20714;-72
2022/06/28 21:26:49;;;;;;;;;;;20.20;99.90;;;;;;8357755;28;20016;-72
2022/06/28 21:30:50;;;;;;;;;;;20.10;99.90;;;;;;8378533;28;22274;-72
2022/06/28 21:34:52;;;;;;;;;;;20.00;99.90;;;;;;8358179;28;20023;-72
2022/06/28 21:38:54;;;;;;;;;;;20.00;99.90;;;;;;8363273;28;19931;-72
2022/06/28 21:42:58;;;;;;;;;;;20.00;99.90;;;;;;8342938;28;19920;-72
2022/06/28 21:47:00;;;;;;;;;;;20.00;99.90;;;;;;8356827;28;20245;-72
2022/06/28 21:51:03;;;;;;;;;;;19.90;99.90;;;;;;8368017;28;19920;-71
2022/06/28 21:55:05;;;;;;;;;;;19.80;99.90;;;;;;8342137;28;19965;-72
2022/06/28 21:59:07;;;;;;;;;;;19.70;99.90;;;;;;8366689;28;20662;-71
2022/06/28 22:13:15;;;;;;;;;;;19.60;99.90;;;;;;8360452;28;19923;-71
2022/06/28 22:17:17;;;;;;;;;;;19.50;99.90;;;;;;8370564;28;19921;-72
2022/06/28 22:21:19;;;;;;;;;;;19.50;99.90;;;;;;8367180;28;19921;-72
2022/06/28 22:25:20;;;;;;;;;;;19.40;99.90;;;;;;8366594;28;20391;-72
2022/06/28 22:29:22;;;;;;;;;;;19.40;99.90;;;;;;8367706;28;19931;-72
2022/06/28 22:33:23;;;;;;;;;;;19.40;99.90;;;;;;8373456;28;20375;-72
2022/06/28 22:37:25;;;;;;;;;;;19.40;99.90;;;;;;8369509;28;19935;-72
2022/06/28 22:41:27;;;;;;;;;;;19.40;99.90;;;;;;8359750;28;19959;-71
2022/06/28 22:45:28;;;;;;;;;;;19.40;99.90;;;;;;8343454;28;20295;-72
2022/06/28 22:49:30;;;;;;;;;;;19.40;99.90;;;;;;8366297;28;19928;-72
2022/06/28 22:53:32;;;;;;;;;;;19.40;99.90;;;;;;8342366;28;19928;-71
2022/06/28 22:57:33;;;;;;;;;;;19.30;99.90;;;;;;8355410;28;19920;-72
2022/06/28 23:01:35;;;;;;;;;;;19.30;99.90;;;;;;8374244;28;19932;-71
2022/06/28 23:05:37;;;;;;;;;;;19.30;99.90;;;;;;8342544;28;19927;-72
2022/06/28 23:09:38;;;;;;;;;;;19.20;99.90;;;;;;8360779;28;20288;-72
2022/06/28 23:13:41;;;;;;;;;;;19.30;99.90;;;;;;8363189;28;19927;-71
2022/06/28 23:17:43;;;;;;;;;;;19.30;99.90;;;;;;8362093;28;19928;-71
2022/06/28 23:21:44;;;;;;;;;;;19.30;99.90;;;;;;8350922;28;19925;-71
2022/06/28 23:25:46;;;;;;;;;;;19.30;99.90;;;;;;8345724;28;19924;-72
2022/06/28 23:29:48;;;;;;;;;;;19.30;99.90;;;;;;8375836;28;19921;-72
2022/06/28 23:33:50;;;;;;;;;;;19.20;99.90;;;;;;8376446;28;19936;-71
2022/06/28 23:37:51;;;;;;;;;;;19.20;99.90;;;;;;8368756;28;21269;-72
2022/06/28 23:41:53;;;;;;;;;;;19.20;99.90;;;;;;8370968;28;19928;-71
2022/06/28 23:45:55;;;;;;;;;;;19.10;99.90;;;;;;8349428;28;19927;-71
2022/06/28 23:49:56;;;;;;;;;;;19.10;99.90;;;;;;8361450;28;21239;-72
2022/06/28 23:58:18;;;;;;;;;;;19.10;99.90;;;;;;8373098;28;19932;-72
